createdAt,value
2022-12-25T00:01:24.387Z,8.20
2022-12-25T00:04:48.771Z,8.10
2022-12-25T00:08:16.129Z,8.10
2022-12-25T00:11:39.961Z,8.10
2022-12-25T00:15:05.747Z,8.20
2022-12-25T00:18:30.141Z,8.10
2022-12-25T00:21:54.513Z,8.20
2022-12-25T00:25:19.894Z,8.20
2022-12-25T00:28:46.523Z,8.30
2022-12-25T00:32:11.366Z,8.30
2022-12-25T00:35:38.166Z,8.40
2022-12-25T00:39:02.218Z,8.20
2022-12-25T00:42:28.996Z,8.20
2022-12-25T00:45:58.426Z,8.10
2022-12-25T00:49:24.014Z,8.10
2022-12-25T00:52:48.626Z,8.00
2022-12-25T00:56:15.490Z,8.00
2022-12-25T00:59:40.971Z,8.00
2022-12-25T01:03:04.790Z,7.90
2022-12-25T01:06:28.794Z,8.00
2022-12-25T01:10:10.870Z,8.00
2022-12-25T01:13:37.536Z,8.10
2022-12-25T01:17:03.566Z,8.20
2022-12-25T01:20:29.746Z,8.20
2022-12-25T01:23:54.745Z,8.30
2022-12-25T01:27:18.614Z,8.30
2022-12-25T01:30:49.186Z,8.30
2022-12-25T01:34:14.288Z,8.30
2022-12-25T01:37:38.611Z,8.30
2022-12-25T01:41:02.639Z,8.30
2022-12-25T01:45:05.022Z,8.30
2022-12-25T01:48:49.208Z,8.30
2022-12-25T01:52:23.922Z,8.30
2022-12-25T01:55:51.714Z,8.30
2022-12-25T01:59:19.503Z,8.30
2022-12-25T02:02:45.440Z,8.30
2022-12-25T02:06:12.492Z,8.30
2022-12-25T02:09:38.706Z,8.30
2022-12-25T02:13:04.174Z,8.40
2022-12-25T02:16:34.869Z,8.50
2022-12-25T02:20:46.511Z,8.50
2022-12-25T02:24:38.474Z,8.50
2022-12-25T02:28:12.908Z,8.50
2022-12-25T02:31:45.216Z,8.40
2022-12-25T02:35:16.339Z,8.40
2022-12-25T02:39:03.920Z,8.50
2022-12-25T02:42:54.933Z,8.50
2022-12-25T02:46:42.914Z,8.60
2022-12-25T02:50:28.795Z,8.60
2022-12-25T02:54:13.409Z,8.60
2022-12-25T02:58:01.052Z,8.60
2022-12-25T03:01:50.046Z,8.70
2022-12-25T03:05:35.962Z,8.70
2022-12-25T03:09:21.970Z,8.70
2022-12-25T03:12:50.022Z,8.80
2022-12-25T03:16:31.282Z,8.80
2022-12-25T03:20:14.989Z,8.90
2022-12-25T03:23:59.873Z,8.90
2022-12-25T03:27:25.456Z,9.00
2022-12-25T03:31:13.687Z,9.00
2022-12-25T03:35:00.990Z,9.00
2022-12-25T03:38:51.979Z,9.00
2022-12-25T03:42:47.020Z,8.80
2022-12-25T03:46:33.057Z,8.70
2022-12-25T03:50:22.063Z,8.60
2022-12-25T03:54:09.034Z,8.60
2022-12-25T03:57:52.372Z,8.70
2022-12-25T04:01:34.362Z,8.70
2022-12-25T04:05:16.096Z,8.70
2022-12-25T04:08:58.071Z,8.70
2022-12-25T04:12:43.062Z,8.60
2022-12-25T04:16:24.408Z,8.60
2022-12-25T04:20:06.093Z,8.60
2022-12-25T04:23:48.055Z,8.50
2022-12-25T04:27:30.118Z,8.50
2022-12-25T04:31:18.981Z,8.40
2022-12-25T04:35:01.099Z,8.40
2022-12-25T04:38:24.648Z,8.50
2022-12-25T04:41:48.869Z,8.50
2022-12-25T04:45:13.097Z,8.60
2022-12-25T04:48:40.201Z,8.60
2022-12-25T04:52:03.839Z,8.60
2022-12-25T04:55:27.849Z,8.60
2022-12-25T04:58:51.871Z,8.70
2022-12-25T05:02:18.486Z,8.70
2022-12-25T05:05:44.873Z,8.70
2022-12-25T05:09:08.796Z,8.70
2022-12-25T05:12:32.888Z,8.80
2022-12-25T05:15:56.899Z,8.80
2022-12-25T05:19:20.951Z,8.80
2022-12-25T05:22:48.722Z,8.80
2022-12-25T05:26:12.259Z,8.80
2022-12-25T05:29:40.391Z,8.90
2022-12-25T05:33:05.075Z,9.00
2022-12-25T05:36:28.944Z,9.00
2022-12-25T05:39:54.294Z,9.00
2022-12-25T05:43:19.312Z,9.00
2022-12-25T05:46:43.140Z,9.10
2022-12-25T05:50:08.231Z,9.00
2022-12-25T05:53:31.940Z,9.00
2022-12-25T05:56:57.307Z,9.00
2022-12-25T06:00:21.811Z,9.00
2022-12-25T06:03:45.977Z,9.00
2022-12-25T06:07:09.962Z,9.00
2022-12-25T06:10:33.988Z,9.10
2022-12-25T06:13:59.299Z,9.10
2022-12-25T06:17:25.812Z,9.10
2022-12-25T06:20:50.035Z,9.10
2022-12-25T06:24:20.834Z,9.00
2022-12-25T06:27:44.937Z,9.10
2022-12-25T06:31:12.421Z,9.10
2022-12-25T06:34:36.949Z,9.10
2022-12-25T06:38:01.092Z,9.20
2022-12-25T06:41:28.558Z,9.10
2022-12-25T06:44:53.231Z,9.10
2022-12-25T06:48:18.099Z,9.10
2022-12-25T06:51:42.087Z,9.10
2022-12-25T06:55:06.667Z,9.10
2022-12-25T06:58:30.998Z,9.10
2022-12-25T07:01:58.023Z,9.10
2022-12-25T07:05:23.418Z,9.00
2022-12-25T07:08:47.041Z,9.10
2022-12-25T07:12:16.995Z,9.10
2022-12-25T07:15:44.269Z,9.10
2022-12-25T07:19:07.991Z,9.00
2022-12-25T07:22:33.404Z,9.00
2022-12-25T07:26:00.041Z,9.00
2022-12-25T07:29:26.180Z,9.10
2022-12-25T07:32:52.254Z,9.00
2022-12-25T07:36:16.262Z,9.10
2022-12-25T07:39:41.673Z,9.10
2022-12-25T07:43:06.125Z,9.10
2022-12-25T07:46:31.065Z,9.10
2022-12-25T07:49:57.163Z,9.10
2022-12-25T07:53:20.679Z,9.20
2022-12-25T07:56:46.442Z,9.20
2022-12-25T08:00:11.669Z,9.20
2022-12-25T08:03:38.736Z,9.20
2022-12-25T08:07:03.324Z,9.20
2022-12-25T08:10:31.383Z,9.30
2022-12-25T08:13:56.411Z,9.30
2022-12-25T08:17:23.913Z,9.30
2022-12-25T08:20:48.132Z,9.30
2022-12-25T08:24:12.076Z,9.40
2022-12-25T08:27:36.402Z,9.30
2022-12-25T08:31:06.419Z,9.30
2022-12-25T08:34:30.160Z,9.30
2022-12-25T08:38:00.995Z,9.30
2022-12-25T08:41:25.127Z,9.40
2022-12-25T08:44:48.635Z,9.30
2022-12-25T08:48:13.805Z,9.40
2022-12-25T08:51:37.562Z,9.40
2022-12-25T08:55:01.098Z,9.40
2022-12-25T08:58:24.669Z,9.40
2022-12-25T09:01:48.262Z,9.50
2022-12-25T09:05:13.249Z,9.50
2022-12-25T09:08:41.125Z,9.60
2022-12-25T09:12:09.683Z,9.60
2022-12-25T09:15:33.301Z,9.60
2022-12-25T09:18:58.729Z,9.60
2022-12-25T09:22:23.564Z,9.50
2022-12-25T09:25:47.120Z,9.40
2022-12-25T09:29:10.578Z,9.40
2022-12-25T09:32:34.201Z,9.40
2022-12-25T09:35:59.011Z,9.40
2022-12-25T09:39:24.201Z,9.40
2022-12-25T09:42:49.527Z,9.40
2022-12-25T09:46:18.241Z,9.40
2022-12-25T09:49:48.120Z,9.40
2022-12-25T09:53:16.784Z,9.40
2022-12-25T09:56:41.664Z,9.40
2022-12-25T10:00:07.946Z,9.40
2022-12-25T10:03:47.788Z,9.40
2022-12-25T10:07:18.114Z,9.40
2022-12-25T10:10:51.175Z,9.50
2022-12-25T10:14:24.821Z,9.50
2022-12-25T10:18:03.193Z,9.50
2022-12-25T10:21:27.938Z,9.50
2022-12-25T10:24:54.097Z,9.50
2022-12-25T10:28:24.601Z,9.60
2022-12-25T10:31:54.637Z,9.60
2022-12-25T10:35:20.410Z,9.60
2022-12-25T10:38:44.191Z,9.60
2022-12-25T10:42:24.656Z,9.60
2022-12-25T10:45:50.180Z,9.60
2022-12-25T10:49:18.111Z,9.60
2022-12-25T10:52:56.124Z,9.60
2022-12-25T10:56:20.806Z,9.60
2022-12-25T10:59:45.562Z,9.60
2022-12-25T11:03:22.295Z,9.50
2022-12-25T11:06:57.705Z,9.40
2022-12-25T11:10:23.987Z,9.30
2022-12-25T11:13:51.496Z,9.20
2022-12-25T11:17:22.484Z,9.20
2022-12-25T11:20:50.278Z,9.20
2022-12-25T11:24:21.354Z,9.30
2022-12-25T11:27:50.268Z,9.30
2022-12-25T11:31:19.190Z,9.40
2022-12-25T11:34:45.395Z,9.40
2022-12-25T11:38:10.381Z,9.40
2022-12-25T11:41:37.156Z,9.40
2022-12-25T11:45:05.107Z,9.40
2022-12-25T11:48:34.842Z,9.40
2022-12-25T11:51:59.124Z,9.40
2022-12-25T11:55:27.174Z,9.30
2022-12-25T11:58:54.456Z,9.30
2022-12-25T12:02:25.870Z,9.30
2022-12-25T12:05:54.792Z,9.30
2022-12-25T12:09:31.001Z,9.30
2022-12-25T12:13:01.363Z,9.30
2022-12-25T12:16:26.434Z,9.30
2022-12-25T12:19:50.415Z,9.30
2022-12-25T12:23:17.854Z,9.30
2022-12-25T12:26:44.679Z,9.40
2022-12-25T12:30:23.555Z,9.40
2022-12-25T12:33:54.106Z,9.40
2022-12-25T12:37:27.233Z,9.50
2022-12-25T12:40:55.711Z,9.50
2022-12-25T12:44:19.779Z,9.60
2022-12-25T12:47:46.407Z,9.70
2022-12-25T12:51:13.817Z,9.80
2022-12-25T12:54:56.480Z,9.90
2022-12-25T12:58:30.876Z,9.80
2022-12-25T13:02:13.585Z,9.80
2022-12-25T13:05:42.362Z,9.70
2022-12-25T13:09:16.665Z,9.70
2022-12-25T13:12:40.305Z,9.70
2022-12-25T13:16:05.043Z,9.60
2022-12-25T13:19:30.067Z,9.60
2022-12-25T13:22:53.880Z,9.60
2022-12-25T13:26:19.161Z,9.70
2022-12-25T13:29:42.740Z,9.70
2022-12-25T13:33:06.387Z,9.70
2022-12-25T13:36:35.949Z,9.60
2022-12-25T13:40:01.841Z,9.60
2022-12-25T13:43:27.717Z,9.60
2022-12-25T13:46:51.435Z,9.70
2022-12-25T13:50:18.343Z,9.80
2022-12-25T13:53:41.913Z,9.80
2022-12-25T13:57:13.037Z,9.80
2022-12-25T14:00:41.733Z,9.80
2022-12-25T14:04:05.425Z,9.70
2022-12-25T14:07:29.153Z,9.70
2022-12-25T14:10:54.041Z,9.70
2022-12-25T14:14:20.621Z,9.60
2022-12-25T14:17:46.225Z,9.60
2022-12-25T14:21:16.372Z,9.60
2022-12-25T14:24:41.160Z,9.70
2022-12-25T14:28:08.831Z,9.70
2022-12-25T14:31:33.682Z,9.70
2022-12-25T14:35:03.308Z,9.70
2022-12-25T14:38:29.324Z,9.70
2022-12-25T14:41:54.941Z,9.60
2022-12-25T14:45:29.205Z,9.60
2022-12-25T14:49:01.165Z,9.70
2022-12-25T14:52:30.291Z,9.60
2022-12-25T14:55:55.791Z,9.60
2022-12-25T14:59:22.531Z,9.70
2022-12-25T15:02:49.100Z,9.70
2022-12-25T15:06:20.083Z,9.80
2022-12-25T15:09:45.050Z,9.70
2022-12-25T15:13:08.649Z,9.70
2022-12-25T15:16:37.913Z,9.80
2022-12-25T15:20:03.926Z,9.80
2022-12-25T15:23:27.648Z,9.90
2022-12-25T15:26:53.347Z,10.00
2022-12-25T15:30:17.313Z,9.80
2022-12-25T15:33:44.253Z,9.80
2022-12-25T15:37:08.103Z,9.70
2022-12-25T15:40:31.927Z,9.70
2022-12-25T15:43:56.945Z,9.70
2022-12-25T15:47:22.861Z,9.80
2022-12-25T15:50:46.782Z,9.70
2022-12-25T15:54:10.822Z,9.70
2022-12-25T15:57:35.100Z,9.70
2022-12-25T16:01:00.065Z,9.80
2022-12-25T16:04:24.872Z,9.70
2022-12-25T16:07:48.559Z,9.90
2022-12-25T16:11:12.468Z,9.90
2022-12-25T16:14:36.080Z,9.90
2022-12-25T16:18:01.176Z,10.00
2022-12-25T16:21:25.403Z,10.00
2022-12-25T16:24:49.461Z,10.00
2022-12-25T16:28:13.100Z,10.10
2022-12-25T16:31:37.367Z,10.10
2022-12-25T16:35:02.735Z,10.20
2022-12-25T16:38:27.315Z,10.20
2022-12-25T16:41:50.857Z,10.20
2022-12-25T16:45:15.048Z,10.20
2022-12-25T16:48:38.801Z,10.20
2022-12-25T16:52:03.868Z,10.20
2022-12-25T16:55:30.132Z,10.30
2022-12-25T16:58:54.098Z,10.30
2022-12-25T17:02:19.467Z,10.30
2022-12-25T17:05:43.105Z,10.30
2022-12-25T17:09:08.028Z,10.40
2022-12-25T17:12:31.577Z,10.50
2022-12-25T17:15:55.210Z,10.50
2022-12-25T17:19:20.813Z,10.50
2022-12-25T17:22:44.388Z,10.60
2022-12-25T17:26:09.395Z,10.70
2022-12-25T17:29:33.051Z,10.60
2022-12-25T17:32:57.515Z,10.70
2022-12-25T17:36:22.557Z,10.70
2022-12-25T17:39:46.103Z,10.80
2022-12-25T17:43:14.339Z,10.80
2022-12-25T17:46:42.579Z,10.80
2022-12-25T17:50:07.455Z,10.90
2022-12-25T17:53:31.301Z,10.90
2022-12-25T17:56:54.916Z,10.90
2022-12-25T18:00:20.765Z,10.90
2022-12-25T18:03:45.349Z,10.90
2022-12-25T18:07:09.292Z,10.90
2022-12-25T18:10:37.371Z,10.90
2022-12-25T18:14:04.070Z,10.90
2022-12-25T18:17:29.194Z,10.90
2022-12-25T18:20:54.697Z,10.90
2022-12-25T18:24:18.545Z,10.90
2022-12-25T18:27:42.395Z,10.90
2022-12-25T18:31:09.112Z,10.90
2022-12-25T18:34:34.091Z,10.80
2022-12-25T18:37:57.774Z,10.80
2022-12-25T18:41:22.306Z,10.80
2022-12-25T18:44:46.022Z,10.80
2022-12-25T18:48:11.437Z,10.80
2022-12-25T18:51:37.205Z,10.80
2022-12-25T18:55:01.060Z,10.80
2022-12-25T18:58:26.184Z,10.80
2022-12-25T19:01:51.296Z,10.80
2022-12-25T19:05:15.155Z,10.90
2022-12-25T19:08:40.051Z,10.90
2022-12-25T19:12:03.796Z,10.90
2022-12-25T19:15:27.326Z,10.80
2022-12-25T19:18:50.904Z,10.80
2022-12-25T19:22:14.867Z,10.80
2022-12-25T19:25:41.334Z,10.80
2022-12-25T19:29:05.104Z,10.80
2022-12-25T19:32:28.647Z,10.80
2022-12-25T19:35:52.283Z,10.70
2022-12-25T19:39:16.846Z,10.80
2022-12-25T19:42:42.198Z,10.80
2022-12-25T19:46:07.003Z,10.80
2022-12-25T19:49:30.635Z,10.80
2022-12-25T19:52:54.200Z,10.80
2022-12-25T19:56:18.326Z,10.80
2022-12-25T19:59:43.225Z,10.80
2022-12-25T20:03:06.837Z,10.80
2022-12-25T20:06:32.046Z,10.80
2022-12-25T20:09:55.622Z,10.80
2022-12-25T20:13:20.327Z,10.70
2022-12-25T20:16:45.391Z,10.80
2022-12-25T20:20:09.671Z,10.70
2022-12-25T20:23:33.668Z,10.70
2022-12-25T20:26:59.531Z,10.70
2022-12-25T20:30:23.478Z,10.70
2022-12-25T20:33:48.395Z,10.70
2022-12-25T20:37:11.978Z,10.60
2022-12-25T20:41:00.074Z,10.70
2022-12-25T20:44:19.608Z,10.60
2022-12-25T20:47:43.248Z,10.70
2022-12-25T20:51:10.302Z,10.70
2022-12-25T20:54:34.097Z,10.70
2022-12-25T20:57:57.685Z,10.70
2022-12-25T21:01:21.355Z,10.70
2022-12-25T21:04:50.556Z,10.70
2022-12-25T21:08:19.658Z,10.80
2022-12-25T21:11:43.169Z,10.80
2022-12-25T21:15:13.266Z,10.80
2022-12-25T21:18:39.111Z,10.80
2022-12-25T21:22:02.688Z,10.80
2022-12-25T21:25:29.564Z,10.80
2022-12-25T21:28:54.985Z,10.80
2022-12-25T21:32:35.996Z,10.80
2022-12-25T21:36:06.782Z,10.80
2022-12-25T21:39:30.336Z,10.80
2022-12-25T21:42:55.302Z,10.90
2022-12-25T21:46:19.180Z,10.90
2022-12-25T21:50:00.177Z,10.80
2022-12-25T21:53:24.315Z,10.90
2022-12-25T21:56:48.999Z,10.90
2022-12-25T22:00:14.910Z,10.90
2022-12-25T22:03:38.843Z,10.90
2022-12-25T22:07:20.591Z,10.90
2022-12-25T22:10:44.145Z,11.00
2022-12-25T22:14:51.470Z,10.90
2022-12-25T22:18:28.363Z,11.00
2022-12-25T22:21:52.770Z,10.90
2022-12-25T22:25:17.307Z,10.90
2022-12-25T22:28:41.039Z,10.90
2022-12-25T22:32:05.030Z,10.90
2022-12-25T22:35:29.962Z,10.90
2022-12-25T22:38:53.563Z,10.90
2022-12-25T22:42:17.277Z,10.90
2022-12-25T22:45:40.891Z,10.90
2022-12-25T22:49:04.634Z,10.90
2022-12-25T22:52:29.532Z,10.90
2022-12-25T22:55:53.087Z,10.90
2022-12-25T22:59:18.901Z,10.90
2022-12-25T23:02:42.700Z,10.90
2022-12-25T23:06:06.558Z,10.90
2022-12-25T23:09:31.922Z,10.90
2022-12-25T23:13:14.411Z,10.90
2022-12-25T23:16:38.302Z,10.90
2022-12-25T23:20:20.027Z,10.90
2022-12-25T23:24:00.942Z,11.00
2022-12-25T23:27:25.819Z,10.90
2022-12-25T23:30:48.452Z,10.90
2022-12-25T23:34:12.412Z,10.90
2022-12-25T23:37:35.974Z,10.90
2022-12-25T23:40:59.495Z,10.90
2022-12-25T23:44:25.134Z,10.90
2022-12-25T23:47:48.659Z,10.90
2022-12-25T23:51:12.296Z,10.80
2022-12-25T23:54:35.962Z,10.90
2022-12-25T23:57:59.481Z,10.90
